Time;durP1;ratioP1;P1;durP2;ratioP2;P2;SDS_P1;SDS_P2;PMS_P1;PMS_P2;Temp;Humidity;BMP_temperature;BMP_pressure;BME280_temperature;BME280_humidity;BME280_pressure;Samples;Min_cycle;Max_cycle;Signal;HPM_P1;HPM_P2
2021/05/01 00:00:40;;;;;;;8.38;2.65;;;13.80;80.40;;;;;;5088781;28;20024;-67
2021/05/01 00:03:06;;;;;;;5.47;3.05;;;13.80;81.00;;;;;;5087387;28;20028;-66
2021/05/01 00:05:31;;;;;;;;;;;13.80;80.90;;;;;;5089552;28;20028;-66
2021/05/01 00:07:57;;;;;;;9.52;2.90;;;13.70;81.20;;;;;;5088775;28;19908;-66
2021/05/01 00:10:23;;;;;;;;;;;13.70;81.10;;;;;;5088996;28;20053;-67
2021/05/01 00:12:48;;;;;;;5.50;2.63;;;13.80;81.30;;;;;;5088897;28;19930;-66
2021/05/01 00:15:14;;;;;;;;;;;13.80;80.80;;;;;;5088978;28;20039;-67
2021/05/01 00:17:40;;;;;;;5.22;2.72;;;13.90;80.10;;;;;;5088441;28;19915;-65
2021/05/01 00:20:06;;;;;;;;;;;14.00;80.10;;;;;;5089068;28;20077;-67
2021/05/01 00:22:31;;;;;;;5.35;2.28;;;14.10;79.60;;;;;;5087098;28;19904;-67
2021/05/01 00:24:57;;;;;;;;;;;14.10;79.50;;;;;;5088791;28;20472;-66
2021/05/01 00:27:22;;;;;;;8.35;3.55;;;14.10;79.60;;;;;;5088238;28;19949;-66
2021/05/01 00:29:48;;;;;;;;;;;14.10;80.10;;;;;;5089112;28;20035;-67
2021/05/01 00:32:13;;;;;;;5.93;3.25;;;14.10;80.30;;;;;;5087721;28;19961;-67
2021/05/01 00:34:39;;;;;;;;;;;14.10;80.00;;;;;;5088928;28;20032;-65
2021/05/01 00:37:05;;;;;;;7.03;3.83;;;14.20;79.70;;;;;;5087827;28;19908;-67
2021/05/01 00:39:30;;;;;;;;;;;14.20;79.10;;;;;;5088564;28;20164;-66
2021/05/01 00:41:56;;;;;;;10.05;4.90;;;14.30;78.30;;;;;;5086458;28;19995;-67
2021/05/01 00:44:21;;;;;;;9.55;3.40;;;14.30;78.80;;;;;;5087726;28;20472;-67
2021/05/01 00:46:47;;;;;;;;;;;14.40;78.30;;;;;;5088525;28;20064;-66
2021/05/01 00:49:13;;;;;;;5.97;2.83;;;14.50;77.40;;;;;;5087885;28;19942;-67
2021/05/01 00:51:39;;;;;;;6.72;3.35;;;14.70;76.80;;;;;;5087699;28;20031;-67
2021/05/01 00:54:05;;;;;;;;;;;14.80;76.20;;;;;;5087995;28;20032;-66
2021/05/01 00:56:30;;;;;;;4.28;2.38;;;14.80;75.40;;;;;;5087722;28;19916;-67
2021/05/01 00:58:56;;;;;;;;;;;14.90;75.30;;;;;;5088452;28;20594;-66
2021/05/01 01:01:24;;;;;;;7.03;3.00;;;14.90;75.10;;;;;;5087914;28;20376;-67
2021/05/01 01:03:50;;;;;;;3.88;3.13;;;14.90;75.50;;;;;;5087612;28;20024;-66
2021/05/01 01:06:16;;;;;;;;;;;14.80;76.20;;;;;;5086358;28;20028;-67
2021/05/01 01:08:42;;;;;;;10.25;3.85;;;14.70;76.70;;;;;;5087704;28;19908;-67
2021/05/01 01:11:08;;;;;;;4.97;3.70;;;14.70;76.40;;;;;;5087580;28;20050;-67
2021/05/01 01:13:35;;;;;;;8.32;2.90;;;14.70;76.50;;;;;;5087756;28;20533;-66
2021/05/01 01:16:01;;;;;;;5.72;3.13;;;14.70;76.50;;;;;;5086485;28;20119;-66
2021/05/01 01:18:27;;;;;;;10.00;4.00;;;14.70;77.00;;;;;;5087271;28;20496;-69
2021/05/01 01:20:52;;;;;;;;;;;14.60;77.10;;;;;;5088028;28;20028;-69
2021/05/01 01:23:18;;;;;;;7.43;4.18;;;14.60;77.50;;;;;;5087506;28;19908;-68
2021/05/01 01:25:44;;;;;;;18.77;4.45;;;14.70;77.30;;;;;;5086577;28;20020;-66
2021/05/01 01:28:10;;;;;;;;;;;14.90;75.40;;;;;;5087756;28;20036;-66
2021/05/01 01:30:36;;;;;;;8.10;3.85;;;15.20;74.70;;;;;;5087392;28;19910;-67
2021/05/01 01:33:03;;;;;;;;;;;15.30;73.80;;;;;;5087834;28;20063;-66
2021/05/01 01:35:29;;;;;;;12.43;3.33;;;15.40;73.40;;;;;;5087442;28;19908;-66
2021/05/01 01:37:54;;;;;;;;;;;15.30;73.80;;;;;;5086747;28;20089;-67
2021/05/01 01:40:21;;;;;;;6.90;3.95;;;15.20;73.50;;;;;;5085244;28;19922;-67
2021/05/01 01:42:47;;;;;;;9.32;4.13;;;15.20;73.80;;;;;;5087029;28;20028;-67
2021/05/01 01:45:14;;;;;;;;;;;15.20;74.20;;;;;;5087400;28;20043;-67
2021/05/01 01:47:39;;;;;;;5.05;3.35;;;15.20;74.00;;;;;;5085713;28;19904;-67
2021/05/01 01:50:06;;;;;;;;;;;15.20;74.10;;;;;;5085723;28;20108;-66
2021/05/01 01:52:32;;;;;;;12.10;3.88;;;15.20;74.10;;;;;;5086972;28;19931;-67
2021/05/01 01:54:58;;;;;;;8.48;4.03;;;15.20;74.20;;;;;;5084904;28;20028;-67
2021/05/01 01:57:23;;;;;;;5.97;3.40;;;15.30;74.70;;;;;;5085552;28;20024;-66
2021/05/01 01:59:49;;;;;;;8.13;3.80;;;15.30;74.00;;;;;;5085431;28;20047;-67
2021/05/01 02:02:15;;;;;;;7.32;3.30;;;15.30;74.10;;;;;;5086598;28;20481;-67
2021/05/01 02:04:41;;;;;;;5.43;3.55;;;15.20;74.30;;;;;;5086742;28;20789;-66
2021/05/01 02:07:07;;;;;;;;;;;15.20;74.80;;;;;;5086777;28;20028;-67
2021/05/01 02:09:32;;;;;;;12.18;3.60;;;15.00;75.20;;;;;;5086364;28;19904;-66
2021/05/01 02:11:58;;;;;;;8.75;3.92;;;15.10;74.50;;;;;;5086277;28;20813;-67
2021/05/01 02:14:24;;;;;;;;;;;15.40;73.30;;;;;;5086984;28;20038;-68
2021/05/01 02:16:49;;;;;;;6.10;3.05;;;15.50;73.00;;;;;;5086746;28;19904;-67
2021/05/01 02:19:15;;;;;;;;;;;15.50;72.90;;;;;;5086870;28;20069;-68
2021/05/01 02:21:40;;;;;;;7.72;3.38;;;15.50;72.90;;;;;;5086611;28;19919;-68
2021/05/01 02:24:07;;;;;;;7.75;4.18;;;15.50;73.10;;;;;;5085947;28;20035;-67
2021/05/01 02:26:32;;;;;;;10.52;4.75;;;15.50;72.50;;;;;;5086062;28;20031;-67
2021/05/01 02:28:58;;;;;;;;;;;15.60;72.50;;;;;;5086957;28;20024;-67
2021/05/01 02:31:23;;;;;;;7.57;4.28;;;15.80;70.90;;;;;;5086253;28;19915;-68
2021/05/01 02:33:49;;;;;;;;;;;16.10;70.10;;;;;;5086593;28;20048;-67
2021/05/01 02:36:15;;;;;;;14.20;4.72;;;16.10;69.80;;;;;;5086176;28;19908;-67
2021/05/01 02:38:40;;;;;;;9.43;4.93;;;16.10;69.60;;;;;;5085496;28;20080;-67
2021/05/01 02:41:06;;;;;;;12.55;4.50;;;16.30;68.90;;;;;;5086326;28;20389;-68
2021/05/01 02:43:31;;;;;;;13.40;4.60;;;16.30;69.00;;;;;;5086154;28;20055;-67
2021/05/01 02:45:57;;;;;;;11.05;4.05;;;16.30;69.20;;;;;;5086326;28;20526;-67
2021/05/01 02:48:23;;;;;;;8.27;5.68;;;16.20;69.50;;;;;;5085737;28;20031;-67
2021/05/01 02:50:48;;;;;;;10.38;4.88;;;16.20;69.90;;;;;;5090394;28;20380;-67
2021/05/01 02:53:14;;;;;;;10.07;4.53;;;16.20;70.30;;;;;;5090009;28;20042;-67
2021/05/01 02:55:40;;;;;;;10.70;4.90;;;16.10;70.50;;;;;;5090252;28;20186;-67
2021/05/01 02:58:05;;;;;;;7.38;4.05;;;16.10;71.60;;;;;;5090032;28;20081;-67
2021/05/01 03:00:31;;;;;;;26.10;4.55;;;16.20;71.10;;;;;;5090054;28;20020;-66
2021/05/01 03:02:57;;;;;;;7.85;4.15;;;16.10;71.60;;;;;;5089843;28;20028;-68
2021/05/01 03:05:23;;;;;;;10.63;4.38;;;16.00;72.50;;;;;;5090122;28;20035;-67
2021/05/01 03:07:49;;;;;;;6.15;3.85;;;16.10;72.20;;;;;;5089454;28;20495;-67
2021/05/01 03:10:24;;;;;;;11.18;4.22;;;16.20;71.70;;;;;;5090048;28;20032;-67
2021/05/01 03:12:49;;;;;;;18.13;4.70;;;16.20;71.50;;;;;;5090009;28;20243;-67
2021/05/01 03:15:16;;;;;;;9.40;4.75;;;16.10;71.70;;;;;;5088893;28;20432;-67
2021/05/01 03:17:42;;;;;;;8.18;4.40;;;16.00;72.00;;;;;;5089617;28;20754;-67
2021/05/01 03:20:10;;;;;;;13.77;5.82;;;15.90;72.30;;;;;;5089838;28;20032;-67
2021/05/01 03:22:36;;;;;;;10.48;5.53;;;15.90;72.60;;;;;;5089366;28;20032;-67
2021/05/01 03:25:03;;;;;;;10.88;5.20;;;16.00;72.00;;;;;;5090156;28;20031;-67
2021/05/01 03:27:28;;;;;;;12.13;5.00;;;16.20;71.20;;;;;;5089451;28;20024;-67
2021/05/01 03:29:54;;;;;;;11.52;5.47;;;16.00;71.40;;;;;;5089360;28;20105;-67
2021/05/01 03:32:20;;;;;;;;;;;15.80;72.30;;;;;;5089428;28;20563;-67
2021/05/01 03:34:45;;;;;;;16.27;5.20;;;15.70;72.80;;;;;;5089895;28;19912;-67
2021/05/01 03:37:11;;;;;;;12.85;5.75;;;15.80;72.90;;;;;;5089363;28;20107;-67
2021/05/01 03:39:37;;;;;;;12.32;5.38;;;15.80;73.30;;;;;;5088873;28;20048;-67
2021/05/01 03:42:03;;;;;;;18.77;6.25;;;15.70;73.50;;;;;;5089415;28;20036;-67
2021/05/01 03:44:28;;;;;;;11.48;6.10;;;15.70;73.70;;;;;;5089380;28;20073;-67
2021/05/01 03:46:54;;;;;;;;;;;15.70;73.30;;;;;;5089734;28;20078;-67
2021/05/01 03:49:20;;;;;;;13.88;6.18;;;15.60;73.70;;;;;;5089191;28;19908;-67
2021/05/01 03:51:45;;;;;;;;;;;15.60;73.90;;;;;;5088640;28;20862;-68
2021/05/01 03:54:11;;;;;;;10.80;5.95;;;15.60;74.20;;;;;;5088663;28;19918;-67
2021/05/01 03:56:37;;;;;;;10.30;5.53;;;15.60;73.90;;;;;;5088903;28;20099;-68
2021/05/01 03:59:03;;;;;;;;;;;15.60;73.40;;;;;;5089393;28;20035;-67
2021/05/01 04:01:29;;;;;;;8.80;4.80;;;15.60;73.40;;;;;;5088043;28;20372;-67
2021/05/01 04:03:54;;;;;;;6.90;4.60;;;15.60;73.80;;;;;;5089187;28;20035;-67
2021/05/01 04:06:20;;;;;;;11.35;4.80;;;15.60;73.50;;;;;;5088386;28;20031;-67
2021/05/01 04:08:46;;;;;;;11.23;5.20;;;15.70;73.30;;;;;;5088695;28;20032;-68
2021/05/01 04:11:12;;;;;;;8.07;4.97;;;15.80;73.20;;;;;;5088893;28;20161;-67
2021/05/01 04:13:44;;;;;;;9.77;5.40;;;15.80;72.50;;;;;;5088689;28;20327;-67
2021/05/01 04:16:10;;;;;;;9.27;4.85;;;15.80;72.30;;;;;;5088786;28;20388;-67
2021/05/01 04:18:35;;;;;;;9.98;5.10;;;15.80;72.70;;;;;;5088726;28;20036;-67
2021/05/01 04:21:01;;;;;;;8.38;5.72;;;15.80;72.80;;;;;;5088411;28;20060;-68
2021/05/01 04:23:27;;;;;;;7.90;4.32;;;15.80;73.20;;;;;;5088168;28;20028;-67
2021/05/01 04:25:52;;;;;;;8.93;4.60;;;15.80;73.50;;;;;;5088648;28;20024;-66
2021/05/01 04:28:18;;;;;;;6.45;4.28;;;15.70;73.20;;;;;;5088494;28;20024;-67
2021/05/01 04:30:44;;;;;;;;;;;15.70;73.40;;;;;;5087618;28;20077;-67
2021/05/01 04:33:10;;;;;;;13.32;5.18;;;15.60;74.30;;;;;;5087929;28;19916;-68
2021/05/01 04:35:35;;;;;;;8.75;4.82;;;15.60;74.40;;;;;;5087980;28;20103;-67
2021/05/01 04:38:01;;;;;;;9.18;4.93;;;15.60;75.00;;;;;;5087685;28;20496;-67
2021/05/01 04:40:26;;;;;;;;;;;15.60;75.10;;;;;;5087599;28;20046;-67
2021/05/01 04:42:52;;;;;;;7.53;4.75;;;15.60;74.90;;;;;;5088026;28;19907;-67
2021/05/01 04:45:20;;;;;;;10.18;6.00;;;15.60;75.20;;;;;;5088342;28;20523;-68
2021/05/01 04:47:46;;;;;;;8.30;4.63;;;15.60;75.40;;;;;;5086538;28;20039;-67
2021/05/01 04:50:15;;;;;;;9.52;4.72;;;15.60;75.50;;;;;;5088210;28;20024;-68
2021/05/01 04:52:41;;;;;;;7.72;4.78;;;15.70;74.80;;;;;;5085931;28;20472;-68
2021/05/01 04:55:13;;;;;;;;;;;15.60;75.30;;;;;;5088428;28;20111;-68
2021/05/01 04:57:43;;;;;;;8.77;5.00;;;15.70;75.80;;;;;;5088025;28;19915;-67
2021/05/01 05:00:11;;;;;;;9.13;5.38;;;15.80;74.70;;;;;;5086263;28;20253;-67
2021/05/01 05:02:37;;;;;;;8.90;6.25;;;15.70;74.30;;;;;;5087791;28;20028;-68
2021/05/01 05:05:04;;;;;;;12.95;5.22;;;15.70;74.20;;;;;;5087283;28;20142;-68
2021/05/01 05:07:29;;;;;;;10.73;5.18;;;15.70;74.40;;;;;;5087511;28;20053;-67
2021/05/01 05:09:55;;;;;;;12.95;6.22;;;16.00;73.80;;;;;;5087467;28;20025;-68
2021/05/01 05:12:20;;;;;;;;;;;16.10;73.10;;;;;;5086873;28;20028;-68
2021/05/01 05:14:46;;;;;;;9.57;5.38;;;16.00;73.50;;;;;;5087456;28;20296;-68
2021/05/01 05:17:12;;;;;;;;;;;15.90;73.80;;;;;;5088288;28;20035;-67
2021/05/01 05:19:37;;;;;;;8.52;5.28;;;15.90;74.30;;;;;;5087312;28;19908;-67
2021/05/01 05:22:03;;;;;;;9.95;5.78;;;15.80;75.10;;;;;;5087061;28;20030;-67
2021/05/01 05:24:29;;;;;;;9.30;5.72;;;15.80;75.00;;;;;;5087492;28;20516;-68
2021/05/01 05:26:54;;;;;;;10.27;5.88;;;15.80;74.30;;;;;;5087052;28;20117;-67
2021/05/01 05:29:20;;;;;;;9.23;5.72;;;15.90;74.50;;;;;;5087522;28;20047;-68
2021/05/01 05:31:45;;;;;;;;;;;16.00;73.90;;;;;;5087699;28;20063;-67
2021/05/01 05:34:11;;;;;;;10.73;5.60;;;16.00;73.50;;;;;;5086803;28;19919;-67
2021/05/01 05:36:37;;;;;;;10.55;6.03;;;15.90;74.00;;;;;;5086741;28;20643;-67
2021/05/01 05:39:03;;;;;;;9.68;6.15;;;15.90;74.70;;;;;;5086541;28;20043;-68
2021/05/01 05:41:31;;;;;;;12.68;6.75;;;15.90;75.00;;;;;;5087153;28;20028;-68
2021/05/01 05:43:56;;;;;;;12.52;6.13;;;15.90;74.80;;;;;;5085893;28;20031;-68
2021/05/01 05:46:22;;;;;;;10.77;5.13;;;15.80;76.10;;;;;;5086971;28;20032;-68
2021/05/01 05:48:48;;;;;;;;;;;15.60;76.40;;;;;;5085825;28;20032;-68
2021/05/01 05:51:13;;;;;;;10.90;6.00;;;15.60;77.00;;;;;;5086523;28;19908;-68
2021/05/01 05:53:39;;;;;;;;;;;15.60;77.50;;;;;;5087584;28;20075;-68
2021/05/01 05:56:07;;;;;;;10.18;5.75;;;15.60;77.00;;;;;;5087002;28;19904;-68
2021/05/01 05:58:33;;;;;;;10.43;6.38;;;15.60;77.30;;;;;;5086925;28;20020;-66
2021/05/01 06:00:59;;;;;;;14.38;6.68;;;15.70;77.60;;;;;;5086419;28;20039;-67
2021/05/01 06:03:27;;;;;;;12.57;7.28;;;16.00;77.00;;;;;;5086832;28;20028;-68
2021/05/01 06:05:58;;;;;;;12.90;6.80;;;16.10;76.40;;;;;;5086390;28;20162;-67
2021/05/01 06:08:24;;;;;;;13.07;6.13;;;16.30;75.90;;;;;;5086443;28;20723;-68
2021/05/01 06:10:51;;;;;;;12.43;6.93;;;16.40;75.70;;;;;;5086757;28;20028;-68
2021/05/01 06:13:18;;;;;;;11.10;6.82;;;16.50;75.30;;;;;;5086194;28;20039;-68
2021/05/01 06:15:45;;;;;;;9.30;5.78;;;16.70;75.50;;;;;;5086424;28;20020;-68
2021/05/01 06:18:15;;;;;;;9.00;5.68;;;17.20;73.80;;;;;;5086254;28;20045;-68
2021/05/01 06:20:41;;;;;;;11.25;5.63;;;17.50;72.50;;;;;;5086272;28;20024;-68
2021/05/01 06:23:06;;;;;;;10.73;5.88;;;17.60;72.00;;;;;;5085172;28;20400;-67
2021/05/01 06:25:33;;;;;;;8.48;5.30;;;17.60;72.50;;;;;;5085873;28;20442;-68
2021/05/01 06:27:59;;;;;;;13.00;5.78;;;17.70;72.80;;;;;;5086440;28;20039;-68
2021/05/01 06:30:24;;;;;;;11.80;6.07;;;17.90;72.30;;;;;;5084406;28;20020;-68
2021/05/01 06:32:51;;;;;;;10.45;5.70;;;18.00;71.90;;;;;;5084730;28;20054;-68
2021/05/01 06:35:18;;;;;;;12.30;5.93;;;18.10;72.00;;;;;;5086260;28;20063;-68
2021/05/01 06:37:46;;;;;;;13.15;7.20;;;18.10;71.70;;;;;;5085790;28;20064;-68
2021/05/01 06:40:15;;;;;;;14.73;6.28;;;18.10;71.50;;;;;;5086218;28;20016;-68
2021/05/01 06:42:47;;;;;;;11.05;5.95;;;18.20;71.40;;;;;;5086007;28;20148;-68
2021/05/01 06:45:16;;;;;;;12.27;5.47;;;18.30;71.00;;;;;;5086250;28;20503;-67
2021/05/01 06:47:48;;;;;;;10.85;6.40;;;18.70;69.20;;;;;;5084512;28;20077;-68
2021/05/01 06:50:14;;;;;;;10.13;6.63;;;19.40;67.70;;;;;;5084500;28;20058;-68
2021/05/01 06:52:46;;;;;;;9.27;5.47;;;20.10;64.90;;;;;;5085725;28;20579;-69
2021/05/01 06:55:15;;;;;;;12.82;6.35;;;21.10;62.00;;;;;;5085962;28;20514;-69
2021/05/01 06:57:51;;;;;;;16.67;5.97;;;21.80;59.70;;;;;;5085669;28;20648;-68
2021/05/01 07:00:22;;;;;;;13.48;6.57;;;22.40;56.00;;;;;;5085918;28;20590;-69
2021/05/01 07:02:50;;;;;;;11.77;7.18;;;22.90;54.30;;;;;;5085633;28;20020;-68
2021/05/01 07:05:21;;;;;;;25.48;6.57;;;23.20;51.80;;;;;;5084232;28;20043;-68
2021/05/01 07:07:47;;;;;;;56.03;8.80;;;23.10;52.90;;;;;;5084750;28;20024;-66
2021/05/01 07:10:14;;;;;;;38.10;8.30;;;23.20;51.80;;;;;;5084317;28;20039;-66
2021/05/01 07:12:41;;;;;;;9.45;6.63;;;22.90;51.90;;;;;;5085829;28;20027;-66
2021/05/01 07:15:10;;;;;;;12.13;7.05;;;22.60;52.50;;;;;;5084529;28;20119;-66
2021/05/01 07:17:37;;;;;;;11.13;6.40;;;22.30;54.80;;;;;;5085599;28;20032;-66
2021/05/01 07:20:05;;;;;;;10.70;5.28;;;22.30;54.80;;;;;;5085487;28;20488;-67
2021/05/01 07:22:31;;;;;;;14.90;5.68;;;22.50;54.80;;;;;;5085800;28;20024;-66
2021/05/01 07:24:58;;;;;;;14.82;5.85;;;22.70;53.60;;;;;;5085406;28;20034;-67
2021/05/01 07:27:56;;;;;;;8.82;4.93;;;22.50;53.20;;;;;;5086012;28;20028;-67
2021/05/01 07:30:24;;;;;;;11.80;5.65;;;22.30;54.10;;;;;;5085821;28;20028;-67
2021/05/01 07:32:55;;;;;;;11.55;6.30;;;22.10;55.10;;;;;;5083913;28;20056;-66
2021/05/01 07:35:24;;;;;;;10.80;5.85;;;22.10;54.60;;;;;;5085380;28;20600;-66
2021/05/01 07:37:51;;;;;;;11.82;5.32;;;22.00;54.70;;;;;;5089231;28;20052;-67
2021/05/01 07:40:23;;;;;;;11.07;5.22;;;21.90;55.80;;;;;;5089591;28;20028;-67
2021/05/01 07:42:50;;;;;;;10.75;5.85;;;22.40;55.70;;;;;;5089198;28;20016;-66
2021/05/01 07:45:22;;;;;;;10.73;5.22;;;23.20;53.70;;;;;;5089489;28;20031;-66
2021/05/01 07:47:56;;;;;;;9.43;4.93;;;24.40;51.10;;;;;;5089094;28;20031;-67
2021/05/01 07:50:25;;;;;;;13.77;5.50;;;25.60;48.30;;;;;;5088924;28;20031;-67
2021/05/01 07:52:53;;;;;;;7.95;4.95;;;26.00;44.10;;;;;;5089179;28;20055;-67
2021/05/01 07:55:20;;;;;;;8.68;4.45;;;26.90;44.60;;;;;;5089311;28;20086;-67
2021/05/01 07:57:47;;;;;;;7.68;4.53;;;27.90;42.60;;;;;;5088810;28;20516;-67
2021/05/01 08:00:14;;;;;;;7.72;4.90;;;28.60;41.30;;;;;;5088993;28;20554;-67
2021/05/01 08:02:41;;;;;;;8.60;4.43;;;28.70;39.60;;;;;;5088958;28;20403;-67
2021/05/01 08:05:08;;;;;;;8.00;4.63;;;29.30;38.40;;;;;;5086940;28;20036;-67
2021/05/01 08:07:34;;;;;;;10.88;5.47;;;29.70;38.40;;;;;;5089004;28;20049;-67
2021/05/01 08:10:00;;;;;;;8.60;4.85;;;29.80;37.80;;;;;;5088843;28;20097;-68
2021/05/01 08:12:25;;;;;;;13.02;5.68;;;29.90;36.80;;;;;;5088378;28;20085;-67
2021/05/01 08:14:51;;;;;;;9.27;4.72;;;30.10;36.80;;;;;;5088839;28;20039;-67
2021/05/01 08:17:17;;;;;;;11.93;5.78;;;30.00;37.10;;;;;;5088798;28;20113;-67
2021/05/01 08:19:42;;;;;;;7.53;5.05;;;30.20;37.20;;;;;;5088356;28;20530;-67
2021/05/01 08:22:08;;;;;;;6.65;4.53;;;30.40;35.80;;;;;;5088441;28;20554;-67
2021/05/01 08:24:34;;;;;;;7.32;5.45;;;30.60;35.90;;;;;;5088671;28;20024;-67
2021/05/01 08:26:59;;;;;;;18.45;5.72;;;30.60;35.50;;;;;;5088772;28;20480;-67
2021/05/01 08:29:25;;;;;;;7.60;4.68;;;30.80;34.90;;;;;;5088330;28;20031;-67
2021/05/01 08:31:51;;;;;;;8.68;4.43;;;30.80;35.40;;;;;;5088163;28;20043;-67
2021/05/01 08:34:16;;;;;;;9.63;3.97;;;30.60;34.80;;;;;;5086509;28;20032;-66
2021/05/01 08:36:42;;;;;;;7.63;4.97;;;30.60;34.90;;;;;;5088834;28;20621;-67
2021/05/01 08:39:08;;;;;;;7.57;4.90;;;30.60;33.50;;;;;;5088397;28;20024;-68
2021/05/01 08:41:33;;;;;;;6.97;4.18;;;30.20;34.60;;;;;;5087100;28;20691;-67
2021/05/01 08:44:05;;;;;;;11.45;4.53;;;30.20;35.90;;;;;;5088230;28;20412;-67
2021/05/01 08:46:30;;;;;;;6.82;5.20;;;30.60;36.30;;;;;;5088091;28;20024;-67
2021/05/01 08:48:56;;;;;;;9.85;5.32;;;31.00;35.20;;;;;;5086609;28;20035;-67
2021/05/01 08:51:22;;;;;;;7.80;4.07;;;31.30;34.70;;;;;;5088012;28;20027;-67
2021/05/01 08:53:47;;;;;;;8.68;4.68;;;31.20;34.40;;;;;;5087808;28;20043;-67
2021/05/01 08:56:13;;;;;;;6.25;4.15;;;31.10;33.50;;;;;;5086721;28;20032;-67
2021/05/01 08:58:39;;;;;;;8.52;5.45;;;31.00;33.50;;;;;;5087541;28;20055;-67
2021/05/01 09:01:07;;;;;;;8.02;5.38;;;31.10;34.00;;;;;;5087996;28;20024;-67
2021/05/01 09:03:36;;;;;;;17.73;5.85;;;30.90;34.60;;;;;;5087891;28;20031;-67
2021/05/01 09:06:04;;;;;;;6.10;4.10;;;30.50;35.40;;;;;;5087517;28;20016;-66
2021/05/01 09:08:30;;;;;;;8.30;4.30;;;30.40;35.50;;;;;;5087922;28;20051;-67
2021/05/01 09:11:02;;;;;;;11.38;4.13;;;30.60;35.20;;;;;;5087427;28;20051;-66
2021/05/01 09:13:28;;;;;;;7.60;4.35;;;30.70;34.60;;;;;;5087728;28;20650;-67
2021/05/01 09:16:01;;;;;;;6.22;3.63;;;30.60;34.30;;;;;;5087611;28;20122;-67
2021/05/01 09:18:41;;;;;;;10.57;4.20;;;30.80;34.60;;;;;;5087379;28;20031;-67
2021/05/01 09:21:28;;;;;;;7.20;4.55;;;30.40;33.40;;;;;;5087123;28;20619;-67
2021/05/01 09:23:54;;;;;;;12.02;5.45;;;29.70;35.60;;;;;;5087511;28;20224;-66
2021/05/01 09:26:40;;;;;;;11.43;5.38;;;29.00;36.90;;;;;;5087293;28;20047;-67
2021/05/01 09:29:06;;;;;;;9.80;5.25;;;27.90;39.10;;;;;;5087512;28;20020;-66
2021/05/01 09:31:43;;;;;;;8.13;4.90;;;27.90;40.70;;;;;;5086956;28;20047;-67
2021/05/01 09:34:09;;;;;;;8.55;3.90;;;28.80;38.60;;;;;;5086312;28;20038;-66
2021/05/01 09:36:35;;;;;;;5.78;3.10;;;29.30;37.20;;;;;;5087296;28;20028;-66
2021/05/01 09:39:06;;;;;;;6.82;3.15;;;30.00;35.20;;;;;;5085509;28;20042;-67
2021/05/01 09:41:49;;;;;;;8.48;4.28;;;30.00;35.90;;;;;;5087211;28;20029;-67
2021/05/01 09:44:17;;;;;;;7.13;3.90;;;30.30;36.60;;;;;;5086635;28;20031;-66
2021/05/01 09:46:52;;;;;;;5.03;3.00;;;30.80;35.80;;;;;;5085991;28;20434;-67
2021/05/01 09:49:27;;;;;;;6.15;3.80;;;31.00;34.90;;;;;;5085154;28;20415;-70
2021/05/01 09:52:01;;;;;;;6.43;2.70;;;30.90;34.50;;;;;;5087226;28;20456;-67
2021/05/01 09:54:35;;;;;;;5.43;2.80;;;30.90;35.00;;;;;;5086890;28;20036;-66
2021/05/01 09:57:06;;;;;;;5.03;2.90;;;31.30;33.10;;;;;;5086731;28;20020;-68
2021/05/01 09:59:54;;;;;;;10.95;2.72;;;31.20;33.90;;;;;;5085804;28;20024;-67
2021/05/01 10:02:23;;;;;;;6.30;3.78;;;31.30;33.90;;;;;;5086296;28;20020;-67
2021/05/01 10:05:12;;;;;;;4.32;2.75;;;30.90;33.90;;;;;;5086525;28;20024;-67
2021/05/01 10:07:53;;;;;;;3.75;2.05;;;30.40;32.90;;;;;;5085410;28;20119;-66
2021/05/01 10:10:19;;;;;;;6.57;2.03;;;30.10;34.40;;;;;;5086239;28;20028;-66
2021/05/01 10:12:45;;;;;;;5.85;2.03;;;29.70;35.20;;;;;;5086340;28;20097;-66
2021/05/01 10:15:25;;;;;;;16.63;2.63;;;29.20;36.30;;;;;;5086591;28;20035;-69
2021/05/01 10:17:51;;;;;;;9.02;2.20;;;28.60;36.40;;;;;;5086316;28;20032;-68
2021/05/01 10:20:19;;;;;;;6.65;2.33;;;27.70;36.60;;;;;;5086080;28;20089;-69
2021/05/01 10:22:50;;;;;;;4.20;2.08;;;26.80;38.50;;;;;;5086382;28;20032;-68
2021/05/01 10:25:18;;;;;;;5.72;2.03;;;26.50;40.30;;;;;;5085956;28;20043;-66
2021/05/01 10:27:56;;;;;;;5.82;2.67;;;26.40;40.90;;;;;;5086389;28;20012;-68
2021/05/01 10:30:37;;;;;;;5.95;3.58;;;26.50;41.20;;;;;;5085838;28;20448;-68
2021/05/01 10:33:17;;;;;;;6.88;2.70;;;26.20;41.40;;;;;;5085647;28;20044;-68
2021/05/01 10:36:01;;;;;;;12.00;3.60;;;26.10;42.40;;;;;;5086289;28;20082;-68
2021/05/01 10:38:27;;;;;;;7.85;2.28;;;25.90;43.50;;;;;;5085787;28;20043;-68
2021/05/01 10:40:55;;;;;;;7.57;3.08;;;25.70;44.20;;;;;;5084829;28;20031;-67
2021/05/01 10:43:23;;;;;;;9.18;3.35;;;25.60;45.00;;;;;;5086344;28;20024;-66
2021/05/01 10:45:57;;;;;;;6.40;3.00;;;25.80;45.50;;;;;;5086384;28;20097;-67
2021/05/01 10:48:25;;;;;;;8.98;2.58;;;26.20;45.20;;;;;;5085748;28;20637;-66
2021/05/01 10:51:01;;;;;;;11.25;3.70;;;26.50;44.30;;;;;;5086131;28;20050;-67
2021/05/01 10:53:27;;;;;;;6.60;2.50;;;26.70;42.90;;;;;;5086161;28;20071;-67
2021/05/01 10:55:55;;;;;;;7.30;2.45;;;26.90;42.00;;;;;;5086156;28;20036;-66
2021/05/01 10:58:35;;;;;;;4.18;2.13;;;27.30;42.10;;;;;;5085357;28;20013;-67
2021/05/01 11:01:01;;;;;;;3.50;1.90;;;27.50;41.40;;;;;;5085837;28;20031;-67
2021/05/01 11:03:30;;;;;;;5.93;2.30;;;27.40;41.10;;;;;;5085177;28;20052;-67
2021/05/01 11:05:59;;;;;;;4.45;1.80;;;27.40;41.20;;;;;;5085997;28;20107;-65
2021/05/01 11:08:43;;;;;;;3.60;1.77;;;27.30;40.60;;;;;;5085978;28;20028;-67
2021/05/01 11:11:13;;;;;;;8.98;3.00;;;27.30;41.40;;;;;;5087575;28;20039;-69
2021/05/01 11:13:41;;;;;;;5.13;2.70;;;27.20;42.90;;;;;;5088231;28;20040;-68
2021/05/01 11:16:09;;;;;;;5.90;2.20;;;27.20;42.50;;;;;;5089898;28;20039;-67
2021/05/01 11:18:37;;;;;;;6.47;1.60;;;27.00;41.40;;;;;;5089693;28;20412;-67
2021/05/01 11:21:07;;;;;;;3.45;1.60;;;26.90;41.00;;;;;;5089523;28;20031;-67
2021/05/01 11:23:35;;;;;;;9.30;1.95;;;26.60;41.10;;;;;;5089668;28;20020;-68
2021/05/01 11:26:06;;;;;;;3.38;1.42;;;26.40;42.30;;;;;;5089792;28;20051;-67
2021/05/01 11:28:33;;;;;;;6.45;1.67;;;26.30;42.20;;;;;;5089442;28;20519;-67
2021/05/01 11:30:59;;;;;;;8.60;2.25;;;26.20;42.80;;;;;;5089714;28;20027;-68
2021/05/01 11:33:28;;;;;;;7.35;1.35;;;26.20;42.10;;;;;;5089149;28;20074;-67
2021/05/01 11:35:54;;;;;;;3.50;1.35;;;26.10;40.80;;;;;;5089584;28;20031;-68
2021/05/01 11:38:41;;;;;;;4.85;2.60;;;25.90;42.10;;;;;;5089292;28;20067;-68
2021/05/01 11:41:11;;;;;;;4.20;1.83;;;25.90;43.40;;;;;;5089112;28;20189;-67
2021/05/01 11:43:39;;;;;;;4.57;2.17;;;25.90;43.70;;;;;;5089623;28;20636;-67
2021/05/01 11:46:13;;;;;;;5.32;1.40;;;25.70;44.20;;;;;;5088960;28;20040;-67
2021/05/01 11:48:56;;;;;;;2.92;1.40;;;25.60;44.80;;;;;;5088616;28;20076;-68
2021/05/01 11:51:31;;;;;;;9.38;1.70;;;25.60;45.40;;;;;;5089331;28;20153;-68
2021/05/01 11:54:14;;;;;;;6.35;1.33;;;25.60;45.10;;;;;;5088964;28;20040;-67
2021/05/01 11:57:00;;;;;;;4.43;1.00;;;25.70;44.20;;;;;;5088947;28;20028;-68
2021/05/01 11:59:27;;;;;;;5.55;0.90;;;25.90;41.80;;;;;;5089267;28;20032;-69
2021/05/01 12:02:01;;;;;;;4.97;1.30;;;25.90;41.20;;;;;;5088822;28;20032;-67
2021/05/01 12:04:55;;;;;;;4.45;1.05;;;25.90;40.70;;;;;;5088811;28;20111;-68
2021/05/01 12:07:32;;;;;;;2.65;0.80;;;26.10;41.00;;;;;;5089229;28;20222;-68
2021/05/01 12:10:07;;;;;;;10.05;1.48;;;26.30;39.70;;;;;;5088890;28;20020;-68
2021/05/01 12:12:37;;;;;;;9.43;1.70;;;26.60;40.10;;;;;;5088407;28;20020;-68
2021/05/01 12:15:12;;;;;;;1.70;1.02;;;26.70;38.60;;;;;;5088872;28;20040;-67
2021/05/01 12:17:40;;;;;;;8.15;1.02;;;26.80;39.60;;;;;;5088250;28;20051;-68
2021/05/01 12:20:10;;;;;;;4.70;1.35;;;27.00;39.00;;;;;;5088659;28;20032;-68
2021/05/01 12:22:37;;;;;;;3.10;0.82;;;26.80;39.10;;;;;;5088009;28;20024;-68
2021/05/01 12:25:34;;;;;;;6.05;1.05;;;26.80;39.70;;;;;;5088736;28;20058;-68
2021/05/01 12:28:01;;;;;;;2.03;0.75;;;26.90;40.70;;;;;;5088764;28;20540;-68
2021/05/01 12:30:39;;;;;;;7.82;1.15;;;27.00;39.70;;;;;;5088516;28;20055;-67
2021/05/01 12:33:24;;;;;;;3.10;0.63;;;26.90;39.60;;;;;;5087502;28;20040;-67
2021/05/01 12:36:08;;;;;;;8.10;0.90;;;27.00;38.90;;;;;;5088467;28;20042;-67
2021/05/01 12:38:36;;;;;;;5.95;0.90;;;26.90;38.70;;;;;;5088535;28;20032;-68
2021/05/01 12:41:12;;;;;;;9.45;3.33;;;27.00;39.10;;;;;;5088250;28;20472;-68
2021/05/01 12:43:46;;;;;;;17.27;6.65;;;27.00;38.30;;;;;;5087956;28;20016;-68
2021/05/01 12:46:37;;;;;;;6.85;2.65;;;27.00;37.50;;;;;;5086435;28;20496;-68
2021/05/01 12:49:05;;;;;;;7.13;2.60;;;27.00;38.00;;;;;;5088069;28;20028;-68
2021/05/01 12:51:33;;;;;;;10.80;2.63;;;27.20;38.20;;;;;;5088145;28;20059;-68
2021/05/01 12:54:20;;;;;;;7.07;3.03;;;27.10;38.30;;;;;;5087690;28;20105;-68
2021/05/01 12:56:55;;;;;;;4.07;1.73;;;27.20;38.60;;;;;;5073401;28;20450;-68
2021/05/01 12:59:25;;;;;;;3.30;0.75;;;27.00;37.90;;;;;;5088043;28;20024;-68